sensor_id;sensor_type;location;lat;lon;timestamp;P1;durP1;ratioP1;P2;durP2;ratioP2
52268;SDS011;38224;50.950;4.100;2022-11-22T00:02:06;28.30;;;4.80;;
52268;SDS011;38224;50.950;4.100;2022-11-22T00:04:32;40.40;;;6.43;;
52268;SDS011;38224;50.950;4.100;2022-11-22T00:06:57;24.60;;;5.57;;
52268;SDS011;38224;50.950;4.100;2022-11-22T00:09:22;29.63;;;4.97;;
52268;SDS011;38224;50.950;4.100;2022-11-22T00:11:47;28.20;;;5.27;;
52268;SDS011;38224;50.950;4.100;2022-11-22T00:14:13;22.98;;;4.32;;
52268;SDS011;38224;50.950;4.100;2022-11-22T00:16:38;35.75;;;5.00;;
52268;SDS011;38224;50.950;4.100;2022-11-22T00:19:03;26.90;;;5.13;;
52268;SDS011;38224;50.950;4.100;2022-11-22T00:21:28;26.50;;;5.05;;
52268;SDS011;38224;50.950;4.100;2022-11-22T00:23:56;21.75;;;4.25;;
52268;SDS011;38224;50.950;4.100;2022-11-22T00:26:24;31.05;;;5.03;;
52268;SDS011;38224;50.950;4.100;2022-11-22T00:28:50;24.65;;;4.10;;
52268;SDS011;38224;50.950;4.100;2022-11-22T00:31:15;26.95;;;5.28;;
52268;SDS011;38224;50.950;4.100;2022-11-22T00:33:40;37.40;;;5.60;;
52268;SDS011;38224;50.950;4.100;2022-11-22T00:36:05;37.50;;;4.65;;
52268;SDS011;38224;50.950;4.100;2022-11-22T00:38:31;37.28;;;5.03;;
52268;SDS011;38224;50.950;4.100;2022-11-22T00:40:56;26.20;;;4.85;;
52268;SDS011;38224;50.950;4.100;2022-11-22T00:43:21;23.33;;;4.47;;
52268;SDS011;38224;50.950;4.100;2022-11-22T00:45:46;34.53;;;4.40;;
52268;SDS011;38224;50.950;4.100;2022-11-22T00:48:12;27.33;;;5.88;;
52268;SDS011;38224;50.950;4.100;2022-11-22T00:50:37;24.77;;;4.27;;
52268;SDS011;38224;50.950;4.100;2022-11-22T00:53:02;27.55;;;5.50;;
52268;SDS011;38224;50.950;4.100;2022-11-22T00:55:28;23.83;;;5.63;;
52268;SDS011;38224;50.950;4.100;2022-11-22T00:57:53;36.87;;;5.07;;
52268;SDS011;38224;50.950;4.100;2022-11-22T01:00:18;27.13;;;4.07;;
52268;SDS011;38224;50.950;4.100;2022-11-22T01:02:43;37.88;;;4.65;;
52268;SDS011;38224;50.950;4.100;2022-11-22T01:05:09;26.43;;;4.53;;
52268;SDS011;38224;50.950;4.100;2022-11-22T01:07:34;28.52;;;4.22;;
52268;SDS011;38224;50.950;4.100;2022-11-22T01:09:59;33.17;;;5.97;;
52268;SDS011;38224;50.950;4.100;2022-11-22T01:12:24;26.33;;;4.60;;
52268;SDS011;38224;50.950;4.100;2022-11-22T01:14:50;27.33;;;4.23;;
52268;SDS011;38224;50.950;4.100;2022-11-22T01:17:15;29.03;;;4.20;;
52268;SDS011;38224;50.950;4.100;2022-11-22T01:19:40;24.13;;;4.00;;
52268;SDS011;38224;50.950;4.100;2022-11-22T01:22:05;23.97;;;4.40;;
52268;SDS011;38224;50.950;4.100;2022-11-22T01:24:31;35.05;;;4.90;;
52268;SDS011;38224;50.950;4.100;2022-11-22T01:26:56;28.73;;;3.90;;
52268;SDS011;38224;50.950;4.100;2022-11-22T01:29:21;29.97;;;4.20;;
52268;SDS011;38224;50.950;4.100;2022-11-22T01:31:46;28.15;;;4.13;;
52268;SDS011;38224;50.950;4.100;2022-11-22T01:34:11;24.17;;;3.97;;
52268;SDS011;38224;50.950;4.100;2022-11-22T01:36:37;26.58;;;3.42;;
52268;SDS011;38224;50.950;4.100;2022-11-22T01:39:02;19.25;;;3.60;;
52268;SDS011;38224;50.950;4.100;2022-11-22T01:41:27;27.17;;;4.80;;
52268;SDS011;38224;50.950;4.100;2022-11-22T01:43:53;21.03;;;2.97;;
52268;SDS011;38224;50.950;4.100;2022-11-22T01:46:25;19.17;;;3.40;;
52268;SDS011;38224;50.950;4.100;2022-11-22T01:48:54;24.27;;;4.75;;
52268;SDS011;38224;50.950;4.100;2022-11-22T01:51:27;25.83;;;4.25;;
52268;SDS011;38224;50.950;4.100;2022-11-22T01:53:55;29.73;;;4.38;;
52268;SDS011;38224;50.950;4.100;2022-11-22T01:56:21;28.25;;;3.92;;
52268;SDS011;38224;50.950;4.100;2022-11-22T01:58:49;18.88;;;4.18;;
52268;SDS011;38224;50.950;4.100;2022-11-22T02:01:17;22.25;;;3.53;;
52268;SDS011;38224;50.950;4.100;2022-11-22T02:03:43;23.40;;;4.13;;
52268;SDS011;38224;50.950;4.100;2022-11-22T02:06:09;22.65;;;4.57;;
52268;SDS011;38224;50.950;4.100;2022-11-22T02:08:39;21.42;;;3.97;;
52268;SDS011;38224;50.950;4.100;2022-11-22T02:11:06;26.50;;;5.03;;
52268;SDS011;38224;50.950;4.100;2022-11-22T02:13:33;19.13;;;3.80;;
52268;SDS011;38224;50.950;4.100;2022-11-22T02:15:59;20.52;;;3.75;;
52268;SDS011;38224;50.950;4.100;2022-11-22T02:18:25;16.40;;;3.72;;
52268;SDS011;38224;50.950;4.100;2022-11-22T02:20:51;22.65;;;4.57;;
52268;SDS011;38224;50.950;4.100;2022-11-22T02:25:55;24.03;;;3.67;;
52268;SDS011;38224;50.950;4.100;2022-11-22T02:28:21;18.85;;;3.60;;
52268;SDS011;38224;50.950;4.100;2022-11-22T02:30:46;16.88;;;3.33;;
52268;SDS011;38224;50.950;4.100;2022-11-22T02:33:11;16.67;;;3.93;;
52268;SDS011;38224;50.950;4.100;2022-11-22T02:35:37;23.67;;;3.73;;
52268;SDS011;38224;50.950;4.100;2022-11-22T02:38:04;16.00;;;3.03;;
52268;SDS011;38224;50.950;4.100;2022-11-22T02:40:33;12.15;;;2.92;;
52268;SDS011;38224;50.950;4.100;2022-11-22T02:43:03;18.20;;;2.90;;
52268;SDS011;38224;50.950;4.100;2022-11-22T02:45:29;16.63;;;3.22;;
52268;SDS011;38224;50.950;4.100;2022-11-22T02:48:04;10.83;;;2.83;;
52268;SDS011;38224;50.950;4.100;2022-11-22T02:50:30;12.23;;;3.35;;
52268;SDS011;38224;50.950;4.100;2022-11-22T02:52:55;20.20;;;3.17;;
52268;SDS011;38224;50.950;4.100;2022-11-22T02:55:20;15.17;;;2.67;;
52268;SDS011;38224;50.950;4.100;2022-11-22T02:57:45;14.70;;;2.60;;
52268;SDS011;38224;50.950;4.100;2022-11-22T03:00:11;9.77;;;2.53;;
52268;SDS011;38224;50.950;4.100;2022-11-22T03:02:36;13.27;;;3.10;;
52268;SDS011;38224;50.950;4.100;2022-11-22T03:05:01;20.90;;;2.70;;
52268;SDS011;38224;50.950;4.100;2022-11-22T03:07:27;18.80;;;3.80;;
52268;SDS011;38224;50.950;4.100;2022-11-22T03:09:52;9.87;;;2.07;;
52268;SDS011;38224;50.950;4.100;2022-11-22T03:12:17;10.83;;;3.07;;
52268;SDS011;38224;50.950;4.100;2022-11-22T03:14:42;21.93;;;3.43;;
52268;SDS011;38224;50.950;4.100;2022-11-22T03:17:07;12.98;;;2.42;;
52268;SDS011;38224;50.950;4.100;2022-11-22T03:19:33;17.10;;;3.10;;
52268;SDS011;38224;50.950;4.100;2022-11-22T03:21:58;14.53;;;2.77;;
52268;SDS011;38224;50.950;4.100;2022-11-22T03:24:23;17.95;;;2.60;;
52268;SDS011;38224;50.950;4.100;2022-11-22T03:26:48;13.73;;;2.40;;
52268;SDS011;38224;50.950;4.100;2022-11-22T03:29:14;10.63;;;2.35;;
52268;SDS011;38224;50.950;4.100;2022-11-22T03:31:40;15.75;;;2.92;;
52268;SDS011;38224;50.950;4.100;2022-11-22T03:34:05;14.75;;;4.15;;
52268;SDS011;38224;50.950;4.100;2022-11-22T03:36:30;17.23;;;2.77;;
52268;SDS011;38224;50.950;4.100;2022-11-22T03:38:55;13.10;;;2.47;;
52268;SDS011;38224;50.950;4.100;2022-11-22T03:41:21;16.60;;;3.15;;
52268;SDS011;38224;50.950;4.100;2022-11-22T03:43:46;13.83;;;3.33;;
52268;SDS011;38224;50.950;4.100;2022-11-22T03:46:15;14.00;;;2.67;;
52268;SDS011;38224;50.950;4.100;2022-11-22T03:48:41;18.50;;;3.42;;
52268;SDS011;38224;50.950;4.100;2022-11-22T03:51:06;10.65;;;3.20;;
52268;SDS011;38224;50.950;4.100;2022-11-22T03:53:32;14.90;;;3.35;;
52268;SDS011;38224;50.950;4.100;2022-11-22T03:55:57;17.35;;;2.70;;
52268;SDS011;38224;50.950;4.100;2022-11-22T03:58:22;14.55;;;3.78;;
52268;SDS011;38224;50.950;4.100;2022-11-22T04:00:48;23.75;;;3.13;;
52268;SDS011;38224;50.950;4.100;2022-11-22T04:03:13;18.90;;;2.67;;
52268;SDS011;38224;50.950;4.100;2022-11-22T04:05:38;20.03;;;2.87;;
52268;SDS011;38224;50.950;4.100;2022-11-22T04:08:03;12.53;;;2.90;;
52268;SDS011;38224;50.950;4.100;2022-11-22T04:10:28;18.83;;;3.00;;
52268;SDS011;38224;50.950;4.100;2022-11-22T04:12:57;11.03;;;2.70;;
52268;SDS011;38224;50.950;4.100;2022-11-22T04:15:22;12.45;;;2.60;;
52268;SDS011;38224;50.950;4.100;2022-11-22T04:17:48;12.75;;;2.92;;
52268;SDS011;38224;50.950;4.100;2022-11-22T04:22:57;15.25;;;3.65;;
52268;SDS011;38224;50.950;4.100;2022-11-22T04:25:23;11.55;;;2.70;;
52268;SDS011;38224;50.950;4.100;2022-11-22T04:27:49;11.65;;;2.45;;
52268;SDS011;38224;50.950;4.100;2022-11-22T04:30:14;20.13;;;3.33;;
52268;SDS011;38224;50.950;4.100;2022-11-22T04:32:39;15.32;;;3.08;;
52268;SDS011;38224;50.950;4.100;2022-11-22T04:35:14;15.25;;;2.85;;
52268;SDS011;38224;50.950;4.100;2022-11-22T04:37:40;15.07;;;4.07;;
52268;SDS011;38224;50.950;4.100;2022-11-22T04:40:06;12.30;;;3.28;;
52268;SDS011;38224;50.950;4.100;2022-11-22T04:42:32;11.90;;;2.80;;
52268;SDS011;38224;50.950;4.100;2022-11-22T04:45:15;22.58;;;4.90;;
52268;SDS011;38224;50.950;4.100;2022-11-22T04:47:41;13.70;;;3.27;;
52268;SDS011;38224;50.950;4.100;2022-11-22T04:53:08;19.83;;;2.80;;
52268;SDS011;38224;50.950;4.100;2022-11-22T04:55:33;9.60;;;2.55;;
52268;SDS011;38224;50.950;4.100;2022-11-22T04:57:58;15.50;;;2.88;;
52268;SDS011;38224;50.950;4.100;2022-11-22T05:00:24;16.57;;;3.30;;
52268;SDS011;38224;50.950;4.100;2022-11-22T05:02:51;21.35;;;3.00;;
52268;SDS011;38224;50.950;4.100;2022-11-22T05:05:16;18.57;;;2.73;;
52268;SDS011;38224;50.950;4.100;2022-11-22T05:07:41;9.67;;;2.60;;
52268;SDS011;38224;50.950;4.100;2022-11-22T05:10:07;12.87;;;2.83;;
52268;SDS011;38224;50.950;4.100;2022-11-22T05:12:32;21.50;;;4.43;;
52268;SDS011;38224;50.950;4.100;2022-11-22T05:14:57;14.32;;;2.90;;
52268;SDS011;38224;50.950;4.100;2022-11-22T05:17:23;18.13;;;2.77;;
52268;SDS011;38224;50.950;4.100;2022-11-22T05:19:48;12.70;;;2.57;;
52268;SDS011;38224;50.950;4.100;2022-11-22T05:22:13;15.00;;;2.63;;
52268;SDS011;38224;50.950;4.100;2022-11-22T05:24:38;15.93;;;3.10;;
52268;SDS011;38224;50.950;4.100;2022-11-22T05:27:04;13.70;;;4.07;;
52268;SDS011;38224;50.950;4.100;2022-11-22T05:29:29;16.23;;;3.03;;
52268;SDS011;38224;50.950;4.100;2022-11-22T05:31:54;16.42;;;3.45;;
52268;SDS011;38224;50.950;4.100;2022-11-22T05:34:19;13.65;;;3.13;;
52268;SDS011;38224;50.950;4.100;2022-11-22T05:36:45;15.60;;;3.10;;
52268;SDS011;38224;50.950;4.100;2022-11-22T05:39:10;6.32;;;2.97;;
52268;SDS011;38224;50.950;4.100;2022-11-22T05:41:35;11.50;;;3.17;;
52268;SDS011;38224;50.950;4.100;2022-11-22T05:44:00;12.83;;;3.77;;
52268;SDS011;38224;50.950;4.100;2022-11-22T05:46:26;19.00;;;3.50;;
52268;SDS011;38224;50.950;4.100;2022-11-22T05:48:53;16.92;;;3.25;;
52268;SDS011;38224;50.950;4.100;2022-11-22T05:51:19;19.02;;;3.35;;
52268;SDS011;38224;50.950;4.100;2022-11-22T05:53:45;16.70;;;3.33;;
52268;SDS011;38224;50.950;4.100;2022-11-22T05:56:11;13.30;;;2.83;;
52268;SDS011;38224;50.950;4.100;2022-11-22T05:58:37;13.73;;;3.97;;
52268;SDS011;38224;50.950;4.100;2022-11-22T06:01:06;17.33;;;2.80;;
52268;SDS011;38224;50.950;4.100;2022-11-22T06:03:31;13.43;;;3.00;;
52268;SDS011;38224;50.950;4.100;2022-11-22T06:05:56;24.38;;;3.65;;
52268;SDS011;38224;50.950;4.100;2022-11-22T06:08:22;13.40;;;3.40;;
52268;SDS011;38224;50.950;4.100;2022-11-22T06:10:47;18.30;;;2.70;;
52268;SDS011;38224;50.950;4.100;2022-11-22T06:13:12;13.10;;;3.00;;
52268;SDS011;38224;50.950;4.100;2022-11-22T06:15:37;14.83;;;2.90;;
52268;SDS011;38224;50.950;4.100;2022-11-22T06:18:02;7.70;;;3.40;;
52268;SDS011;38224;50.950;4.100;2022-11-22T06:20:28;15.90;;;3.55;;
52268;SDS011;38224;50.950;4.100;2022-11-22T06:22:53;12.50;;;3.10;;
52268;SDS011;38224;50.950;4.100;2022-11-22T06:25:18;6.53;;;2.20;;
52268;SDS011;38224;50.950;4.100;2022-11-22T06:27:43;16.70;;;4.10;;
52268;SDS011;38224;50.950;4.100;2022-11-22T06:30:09;13.77;;;2.77;;
52268;SDS011;38224;50.950;4.100;2022-11-22T06:32:34;15.98;;;4.13;;
52268;SDS011;38224;50.950;4.100;2022-11-22T06:35:00;9.40;;;2.65;;
52268;SDS011;38224;50.950;4.100;2022-11-22T06:37:27;22.30;;;3.45;;
52268;SDS011;38224;50.950;4.100;2022-11-22T06:39:52;14.02;;;4.07;;
52268;SDS011;38224;50.950;4.100;2022-11-22T06:42:17;18.10;;;4.13;;
52268;SDS011;38224;50.950;4.100;2022-11-22T06:44:43;17.93;;;5.03;;
52268;SDS011;38224;50.950;4.100;2022-11-22T06:47:08;13.07;;;3.67;;
52268;SDS011;38224;50.950;4.100;2022-11-22T06:49:34;16.60;;;3.83;;
52268;SDS011;38224;50.950;4.100;2022-11-22T06:51:59;15.23;;;3.40;;
52268;SDS011;38224;50.950;4.100;2022-11-22T06:54:24;13.87;;;3.43;;
52268;SDS011;38224;50.950;4.100;2022-11-22T06:56:50;18.30;;;3.27;;
52268;SDS011;38224;50.950;4.100;2022-11-22T06:59:15;16.52;;;3.38;;
52268;SDS011;38224;50.950;4.100;2022-11-22T07:01:40;10.97;;;3.27;;
52268;SDS011;38224;50.950;4.100;2022-11-22T07:04:05;21.10;;;3.45;;
52268;SDS011;38224;50.950;4.100;2022-11-22T07:06:32;14.88;;;3.63;;
52268;SDS011;38224;50.950;4.100;2022-11-22T07:08:58;13.95;;;2.88;;
52268;SDS011;38224;50.950;4.100;2022-11-22T07:11:25;12.75;;;3.40;;
52268;SDS011;38224;50.950;4.100;2022-11-22T07:13:52;12.82;;;3.20;;
52268;SDS011;38224;50.950;4.100;2022-11-22T07:16:19;11.75;;;3.25;;
52268;SDS011;38224;50.950;4.100;2022-11-22T07:18:44;10.60;;;2.78;;
52268;SDS011;38224;50.950;4.100;2022-11-22T07:21:11;9.90;;;3.45;;
52268;SDS011;38224;50.950;4.100;2022-11-22T07:23:37;9.18;;;2.50;;
52268;SDS011;38224;50.950;4.100;2022-11-22T07:26:02;12.50;;;3.22;;
52268;SDS011;38224;50.950;4.100;2022-11-22T07:28:28;13.57;;;3.37;;
52268;SDS011;38224;50.950;4.100;2022-11-22T07:30:57;16.00;;;3.37;;
52268;SDS011;38224;50.950;4.100;2022-11-22T07:33:22;13.15;;;3.50;;
52268;SDS011;38224;50.950;4.100;2022-11-22T07:35:47;17.33;;;3.97;;
52268;SDS011;38224;50.950;4.100;2022-11-22T07:38:13;12.60;;;2.65;;
52268;SDS011;38224;50.950;4.100;2022-11-22T07:40:38;11.27;;;3.37;;
52268;SDS011;38224;50.950;4.100;2022-11-22T07:43:03;9.27;;;3.00;;
52268;SDS011;38224;50.950;4.100;2022-11-22T07:45:28;10.50;;;3.67;;
52268;SDS011;38224;50.950;4.100;2022-11-22T07:47:54;15.73;;;3.50;;
52268;SDS011;38224;50.950;4.100;2022-11-22T07:50:19;11.90;;;2.70;;
52268;SDS011;38224;50.950;4.100;2022-11-22T07:52:44;11.17;;;2.77;;
52268;SDS011;38224;50.950;4.100;2022-11-22T07:55:09;12.85;;;3.10;;
52268;SDS011;38224;50.950;4.100;2022-11-22T07:57:35;8.30;;;2.63;;
52268;SDS011;38224;50.950;4.100;2022-11-22T08:00:01;13.77;;;2.92;;
52268;SDS011;38224;50.950;4.100;2022-11-22T08:02:26;11.15;;;3.08;;
52268;SDS011;38224;50.950;4.100;2022-11-22T08:04:51;17.07;;;3.00;;
52268;SDS011;38224;50.950;4.100;2022-11-22T08:07:17;17.35;;;3.40;;
52268;SDS011;38224;50.950;4.100;2022-11-22T08:09:42;15.80;;;3.40;;
52268;SDS011;38224;50.950;4.100;2022-11-22T08:12:07;11.40;;;3.43;;
52268;SDS011;38224;50.950;4.100;2022-11-22T08:14:32;14.52;;;3.30;;
52268;SDS011;38224;50.950;4.100;2022-11-22T08:16:58;11.23;;;3.28;;
52268;SDS011;38224;50.950;4.100;2022-11-22T08:19:23;16.93;;;4.07;;
52268;SDS011;38224;50.950;4.100;2022-11-22T08:21:48;24.73;;;4.30;;
52268;SDS011;38224;50.950;4.100;2022-11-22T08:24:14;10.63;;;3.07;;
52268;SDS011;38224;50.950;4.100;2022-11-22T08:26:39;11.93;;;3.45;;
52268;SDS011;38224;50.950;4.100;2022-11-22T08:29:05;9.75;;;3.22;;
52268;SDS011;38224;50.950;4.100;2022-11-22T08:31:31;13.02;;;3.22;;
52268;SDS011;38224;50.950;4.100;2022-11-22T08:33:56;14.65;;;3.03;;
52268;SDS011;38224;50.950;4.100;2022-11-22T08:36:28;16.27;;;3.60;;
52268;SDS011;38224;50.950;4.100;2022-11-22T08:38:53;10.20;;;2.88;;
52268;SDS011;38224;50.950;4.100;2022-11-22T08:41:19;16.80;;;4.13;;
52268;SDS011;38224;50.950;4.100;2022-11-22T08:43:44;12.17;;;3.60;;
52268;SDS011;38224;50.950;4.100;2022-11-22T08:46:09;13.82;;;3.05;;
52268;SDS011;38224;50.950;4.100;2022-11-22T08:48:35;11.77;;;2.65;;
52268;SDS011;38224;50.950;4.100;2022-11-22T08:51:02;12.63;;;3.40;;
52268;SDS011;38224;50.950;4.100;2022-11-22T08:53:27;18.08;;;4.38;;
52268;SDS011;38224;50.950;4.100;2022-11-22T08:55:54;13.93;;;2.78;;
52268;SDS011;38224;50.950;4.100;2022-11-22T08:58:20;9.30;;;3.00;;
52268;SDS011;38224;50.950;4.100;2022-11-22T09:00:45;16.00;;;3.65;;
52268;SDS011;38224;50.950;4.100;2022-11-22T09:03:11;12.33;;;3.53;;
52268;SDS011;38224;50.950;4.100;2022-11-22T09:05:36;11.25;;;2.80;;
52268;SDS011;38224;50.950;4.100;2022-11-22T09:08:01;11.30;;;3.47;;
52268;SDS011;38224;50.950;4.100;2022-11-22T09:10:27;7.88;;;2.65;;
52268;SDS011;38224;50.950;4.100;2022-11-22T09:12:52;12.40;;;3.17;;
52268;SDS011;38224;50.950;4.100;2022-11-22T09:15:17;11.30;;;2.97;;
52268;SDS011;38224;50.950;4.100;2022-11-22T09:17:42;10.40;;;2.93;;
52268;SDS011;38224;50.950;4.100;2022-11-22T09:20:08;11.50;;;3.47;;
52268;SDS011;38224;50.950;4.100;2022-11-22T09:22:33;12.30;;;3.00;;
52268;SDS011;38224;50.950;4.100;2022-11-22T09:24:59;8.25;;;2.92;;
52268;SDS011;38224;50.950;4.100;2022-11-22T09:27:24;11.13;;;3.42;;
52268;SDS011;38224;50.950;4.100;2022-11-22T09:29:50;13.13;;;3.45;;
52268;SDS011;38224;50.950;4.100;2022-11-22T09:32:16;14.93;;;3.15;;
52268;SDS011;38224;50.950;4.100;2022-11-22T09:34:41;9.23;;;3.07;;
52268;SDS011;38224;50.950;4.100;2022-11-22T09:37:06;8.27;;;2.53;;
52268;SDS011;38224;50.950;4.100;2022-11-22T09:39:31;12.63;;;3.17;;
52268;SDS011;38224;50.950;4.100;2022-11-22T09:42:00;10.88;;;2.92;;
52268;SDS011;38224;50.950;4.100;2022-11-22T09:52:32;6.55;;;2.50;;
52268;SDS011;38224;50.950;4.100;2022-11-22T09:55:00;8.20;;;2.65;;
52268;SDS011;38224;50.950;4.100;2022-11-22T09:57:31;7.82;;;2.25;;
52268;SDS011;38224;50.950;4.100;2022-11-22T10:00:02;6.97;;;2.72;;
52268;SDS011;38224;50.950;4.100;2022-11-22T10:02:32;11.40;;;2.72;;
52268;SDS011;38224;50.950;4.100;2022-11-22T10:04:59;12.40;;;3.03;;
52268;SDS011;38224;50.950;4.100;2022-11-22T10:12:26;6.35;;;3.17;;
52268;SDS011;38224;50.950;4.100;2022-11-22T10:22:17;13.68;;;2.65;;
52268;SDS011;38224;50.950;4.100;2022-11-22T10:24:43;11.45;;;3.53;;
52268;SDS011;38224;50.950;4.100;2022-11-22T10:27:14;8.05;;;2.20;;
52268;SDS011;38224;50.950;4.100;2022-11-22T10:29:56;10.75;;;2.67;;
52268;SDS011;38224;50.950;4.100;2022-11-22T10:45:05;4.40;;;1.80;;
52268;SDS011;38224;50.950;4.100;2022-11-22T10:52:58;6.32;;;1.90;;
52268;SDS011;38224;50.950;4.100;2022-11-22T10:57:53;3.93;;;1.80;;
52268;SDS011;38224;50.950;4.100;2022-11-22T11:00:24;7.28;;;2.17;;
52268;SDS011;38224;50.950;4.100;2022-11-22T11:03:04;5.70;;;2.17;;
52268;SDS011;38224;50.950;4.100;2022-11-22T11:05:45;6.97;;;2.28;;
52268;SDS011;38224;50.950;4.100;2022-11-22T11:08:13;6.05;;;2.30;;
52268;SDS011;38224;50.950;4.100;2022-11-22T11:10:38;6.68;;;2.60;;
52268;SDS011;38224;50.950;4.100;2022-11-22T11:13:23;5.82;;;2.00;;
52268;SDS011;38224;50.950;4.100;2022-11-22T11:15:51;6.65;;;2.42;;
52268;SDS011;38224;50.950;4.100;2022-11-22T11:18:18;5.63;;;2.83;;
52268;SDS011;38224;50.950;4.100;2022-11-22T11:20:45;4.15;;;2.35;;
52268;SDS011;38224;50.950;4.100;2022-11-22T11:23:11;4.97;;;3.08;;
52268;SDS011;38224;50.950;4.100;2022-11-22T11:25:38;5.10;;;2.95;;
52268;SDS011;38224;50.950;4.100;2022-11-22T11:28:18;8.70;;;2.97;;
52268;SDS011;38224;50.950;4.100;2022-11-22T11:30:51;5.55;;;2.53;;
52268;SDS011;38224;50.950;4.100;2022-11-22T11:33:25;5.63;;;2.78;;
52268;SDS011;38224;50.950;4.100;2022-11-22T11:35:52;8.45;;;2.85;;
52268;SDS011;38224;50.950;4.100;2022-11-22T11:38:35;10.70;;;2.75;;
52268;SDS011;38224;50.950;4.100;2022-11-22T11:43:43;4.43;;;2.28;;
52268;SDS011;38224;50.950;4.100;2022-11-22T11:46:14;2.08;;;1.80;;
52268;SDS011;38224;50.950;4.100;2022-11-22T11:48:39;3.90;;;1.40;;
52268;SDS011;38224;50.950;4.100;2022-11-22T11:51:21;6.88;;;2.30;;
52268;SDS011;38224;50.950;4.100;2022-11-22T11:58:55;2.35;;;1.40;;
52268;SDS011;38224;50.950;4.100;2022-11-22T12:01:22;3.95;;;1.35;;
52268;SDS011;38224;50.950;4.100;2022-11-22T12:03:52;4.10;;;1.30;;
52268;SDS011;38224;50.950;4.100;2022-11-22T12:06:19;1.88;;;1.10;;
52268;SDS011;38224;50.950;4.100;2022-11-22T12:08:45;2.95;;;1.30;;
52268;SDS011;38224;50.950;4.100;2022-11-22T12:11:11;3.77;;;1.80;;
52268;SDS011;38224;50.950;4.100;2022-11-22T12:13:41;1.90;;;1.60;;
52268;SDS011;38224;50.950;4.100;2022-11-22T12:16:14;3.70;;;1.40;;
52268;SDS011;38224;50.950;4.100;2022-11-22T12:18:51;3.30;;;1.67;;
52268;SDS011;38224;50.950;4.100;2022-11-22T12:21:21;3.05;;;1.70;;
52268;SDS011;38224;50.950;4.100;2022-11-22T12:24:10;3.17;;;1.40;;
52268;SDS011;38224;50.950;4.100;2022-11-22T12:26:37;3.55;;;1.50;;
52268;SDS011;38224;50.950;4.100;2022-11-22T12:29:02;3.63;;;1.50;;
52268;SDS011;38224;50.950;4.100;2022-11-22T12:31:34;3.88;;;1.35;;
52268;SDS011;38224;50.950;4.100;2022-11-22T12:34:16;2.05;;;1.10;;
52268;SDS011;38224;50.950;4.100;2022-11-22T12:39:27;1.88;;;1.35;;
52268;SDS011;38224;50.950;4.100;2022-11-22T12:42:03;4.22;;;1.42;;
52268;SDS011;38224;50.950;4.100;2022-11-22T12:44:33;4.03;;;1.45;;
52268;SDS011;38224;50.950;4.100;2022-11-22T12:47:00;3.83;;;1.70;;
52268;SDS011;38224;50.950;4.100;2022-11-22T12:50:04;4.25;;;1.77;;
52268;SDS011;38224;50.950;4.100;2022-11-22T12:57:37;3.90;;;2.03;;
52268;SDS011;38224;50.950;4.100;2022-11-22T13:00:05;4.22;;;1.98;;
52268;SDS011;38224;50.950;4.100;2022-11-22T13:02:32;5.13;;;2.25;;
52268;SDS011;38224;50.950;4.100;2022-11-22T13:05:02;5.05;;;2.50;;
52268;SDS011;38224;50.950;4.100;2022-11-22T13:10:02;3.85;;;2.15;;
52268;SDS011;38224;50.950;4.100;2022-11-22T13:12:33;5.53;;;1.73;;
52268;SDS011;38224;50.950;4.100;2022-11-22T13:14:59;4.97;;;2.00;;
52268;SDS011;38224;50.950;4.100;2022-11-22T13:17:26;3.17;;;1.75;;
52268;SDS011;38224;50.950;4.100;2022-11-22T13:19:59;7.80;;;1.98;;
52268;SDS011;38224;50.950;4.100;2022-11-22T13:27:42;4.30;;;1.77;;
52268;SDS011;38224;50.950;4.100;2022-11-22T13:30:18;4.57;;;1.52;;
52268;SDS011;38224;50.950;4.100;2022-11-22T13:32:44;5.88;;;1.90;;
52268;SDS011;38224;50.950;4.100;2022-11-22T13:37:40;3.13;;;1.50;;
52268;SDS011;38224;50.950;4.100;2022-11-22T13:42:40;4.82;;;1.70;;
52268;SDS011;38224;50.950;4.100;2022-11-22T13:45:11;5.78;;;1.60;;
52268;SDS011;38224;50.950;4.100;2022-11-22T13:47:43;4.88;;;1.77;;
52268;SDS011;38224;50.950;4.100;2022-11-22T13:52:52;5.30;;;1.75;;
52268;SDS011;38224;50.950;4.100;2022-11-22T13:55:25;3.80;;;1.60;;
52268;SDS011;38224;50.950;4.100;2022-11-22T13:57:50;6.95;;;1.88;;
52268;SDS011;38224;50.950;4.100;2022-11-22T14:02:45;6.40;;;2.17;;
52268;SDS011;38224;50.950;4.100;2022-11-22T14:07:43;7.50;;;1.50;;
52268;SDS011;38224;50.950;4.100;2022-11-22T14:10:22;8.40;;;1.95;;
52268;SDS011;38224;50.950;4.100;2022-11-22T14:26:13;4.63;;;1.83;;
52268;SDS011;38224;50.950;4.100;2022-11-22T14:31:25;5.95;;;1.70;;
52268;SDS011;38224;50.950;4.100;2022-11-22T14:36:35;6.68;;;1.60;;
52268;SDS011;38224;50.950;4.100;2022-11-22T14:39:00;10.50;;;1.97;;
52268;SDS011;38224;50.950;4.100;2022-11-22T14:41:45;5.40;;;1.48;;
52268;SDS011;38224;50.950;4.100;2022-11-22T14:44:13;7.25;;;1.75;;
52268;SDS011;38224;50.950;4.100;2022-11-22T14:46:43;7.28;;;1.50;;
52268;SDS011;38224;50.950;4.100;2022-11-22T14:49:12;7.88;;;1.42;;
52268;SDS011;38224;50.950;4.100;2022-11-22T14:51:39;3.83;;;1.80;;
52268;SDS011;38224;50.950;4.100;2022-11-22T14:54:21;18.50;;;6.88;;
52268;SDS011;38224;50.950;4.100;2022-11-22T14:56:47;7.85;;;3.58;;
52268;SDS011;38224;50.950;4.100;2022-11-22T14:59:27;6.65;;;1.80;;
52268;SDS011;38224;50.950;4.100;2022-11-22T15:12:35;5.85;;;1.88;;
52268;SDS011;38224;50.950;4.100;2022-11-22T15:17:49;5.80;;;2.33;;
52268;SDS011;38224;50.950;4.100;2022-11-22T15:20:30;6.05;;;2.33;;
52268;SDS011;38224;50.950;4.100;2022-11-22T15:25:43;8.48;;;2.97;;
52268;SDS011;38224;50.950;4.100;2022-11-22T15:28:19;8.85;;;2.58;;
52268;SDS011;38224;50.950;4.100;2022-11-22T15:30:48;6.90;;;2.08;;
52268;SDS011;38224;50.950;4.100;2022-11-22T15:38:22;7.50;;;2.15;;
52268;SDS011;38224;50.950;4.100;2022-11-22T15:40:47;5.63;;;2.30;;
52268;SDS011;38224;50.950;4.100;2022-11-22T15:43:19;14.30;;;2.50;;
52268;SDS011;38224;50.950;4.100;2022-11-22T15:45:45;9.25;;;1.92;;
52268;SDS011;38224;50.950;4.100;2022-11-22T15:48:14;11.93;;;2.38;;
52268;SDS011;38224;50.950;4.100;2022-11-22T15:53:24;13.23;;;2.42;;
52268;SDS011;38224;50.950;4.100;2022-11-22T15:56:33;9.50;;;2.28;;
52268;SDS011;38224;50.950;4.100;2022-11-22T15:58:40;18.05;;;3.33;;
52268;SDS011;38224;50.950;4.100;2022-11-22T16:01:08;13.02;;;2.85;;
52268;SDS011;38224;50.950;4.100;2022-11-22T16:03:37;16.23;;;4.25;;
52268;SDS011;38224;50.950;4.100;2022-11-22T16:06:03;19.45;;;7.50;;
52268;SDS011;38224;50.950;4.100;2022-11-22T16:08:31;12.52;;;3.85;;
52268;SDS011;38224;50.950;4.100;2022-11-22T16:10:56;12.00;;;3.30;;
52268;SDS011;38224;50.950;4.100;2022-11-22T16:16:03;21.20;;;4.53;;
52268;SDS011;38224;50.950;4.100;2022-11-22T16:18:29;14.48;;;3.83;;
52268;SDS011;38224;50.950;4.100;2022-11-22T16:20:58;12.68;;;4.53;;
52268;SDS011;38224;50.950;4.100;2022-11-22T16:23:25;18.95;;;4.57;;
52268;SDS011;38224;50.950;4.100;2022-11-22T16:25:52;15.45;;;3.97;;
52268;SDS011;38224;50.950;4.100;2022-11-22T16:31:16;13.43;;;3.45;;
52268;SDS011;38224;50.950;4.100;2022-11-22T16:33:43;17.67;;;4.15;;
52268;SDS011;38224;50.950;4.100;2022-11-22T16:36:10;18.02;;;4.45;;
52268;SDS011;38224;50.950;4.100;2022-11-22T16:38:35;15.13;;;3.08;;
52268;SDS011;38224;50.950;4.100;2022-11-22T16:41:00;17.73;;;4.50;;
52268;SDS011;38224;50.950;4.100;2022-11-22T16:43:26;9.73;;;2.58;;
52268;SDS011;38224;50.950;4.100;2022-11-22T16:45:56;14.10;;;3.20;;
52268;SDS011;38224;50.950;4.100;2022-11-22T16:48:22;16.53;;;4.07;;
52268;SDS011;38224;50.950;4.100;2022-11-22T16:50:50;16.17;;;4.55;;
52268;SDS011;38224;50.950;4.100;2022-11-22T16:53:19;19.75;;;4.30;;